createdAt,value
2023-02-15T00:01:43.035Z,48.85
2023-02-15T00:04:12.789Z,44.95
2023-02-15T00:06:39.538Z,49.05
2023-02-15T00:09:06.447Z,44.72
2023-02-15T00:11:43.839Z,49.28
2023-02-15T00:14:13.372Z,45.88
2023-02-15T00:16:42.030Z,46.67
2023-02-15T00:19:09.669Z,49.70
2023-02-15T00:21:38.012Z,47.72
2023-02-15T00:24:08.191Z,47.25
2023-02-15T00:26:36.340Z,43.35
2023-02-15T00:29:03.430Z,46.85
2023-02-15T00:31:32.690Z,46.53
2023-02-15T00:34:12.822Z,45.75
2023-02-15T00:36:40.148Z,47.20
2023-02-15T00:39:07.393Z,43.55
2023-02-15T00:41:35.993Z,46.80
2023-02-15T00:44:03.399Z,46.17
2023-02-15T00:46:30.552Z,43.20
2023-02-15T00:51:24.655Z,48.38
2023-02-15T00:53:52.218Z,42.17
2023-02-15T00:56:19.559Z,41.95
2023-02-15T00:58:46.799Z,51.88
2023-02-15T01:01:17.219Z,54.80
2023-02-15T01:03:46.880Z,51.38
2023-02-15T01:06:15.349Z,54.63
2023-02-15T01:08:44.558Z,51.85
2023-02-15T01:11:15.175Z,52.75
2023-02-15T01:13:42.583Z,45.63
2023-02-15T01:16:09.777Z,47.03
2023-02-15T01:18:37.118Z,45.40
2023-02-15T01:21:18.913Z,52.60
2023-02-15T01:23:46.100Z,56.95
2023-02-15T01:26:13.485Z,47.60
2023-02-15T01:31:15.988Z,45.72
2023-02-15T01:33:46.114Z,51.38
2023-02-15T01:36:13.330Z,54.50
2023-02-15T01:41:27.405Z,38.40
2023-02-15T01:43:57.703Z,55.38
2023-02-15T01:46:47.017Z,59.72
2023-02-15T01:49:18.039Z,60.03
2023-02-15T01:51:47.422Z,49.67
2023-02-15T01:54:25.778Z,42.20
2023-02-15T01:56:56.017Z,54.47
2023-02-15T01:59:25.030Z,48.10
2023-02-15T02:02:00.596Z,52.55
2023-02-15T02:04:42.296Z,41.45
2023-02-15T02:07:10.837Z,50.30
2023-02-15T02:09:38.874Z,53.85
2023-02-15T02:12:06.498Z,47.55
2023-02-15T02:18:09.777Z,51.38
2023-02-15T02:20:51.688Z,37.75
2023-02-15T02:23:52.771Z,46.47
2023-02-15T02:26:32.918Z,50.97
2023-02-15T02:29:18.136Z,49.88
2023-02-15T02:32:22.001Z,48.08
2023-02-15T02:35:06.112Z,54.80
2023-02-15T02:37:33.026Z,53.63
2023-02-15T02:42:49.505Z,47.25
2023-02-15T02:45:55.608Z,55.22
2023-02-15T02:48:26.673Z,59.60
2023-02-15T02:50:53.410Z,54.95
2023-02-15T02:53:20.163Z,53.67
2023-02-15T02:55:57.470Z,59.35
2023-02-15T02:58:49.613Z,49.80
2023-02-15T03:01:28.366Z,51.13
2023-02-15T03:04:02.116Z,60.15
2023-02-15T03:06:38.776Z,45.38
2023-02-15T03:09:22.620Z,45.65
2023-02-15T03:11:50.678Z,58.72
2023-02-15T03:14:19.613Z,52.15
2023-02-15T03:16:48.971Z,46.47
2023-02-15T03:19:24.651Z,45.50
2023-02-15T03:22:10.213Z,56.15
2023-02-15T03:24:48.964Z,64.80
2023-02-15T03:27:24.228Z,51.97
2023-02-15T03:29:56.511Z,55.22
2023-02-15T03:32:26.411Z,47.47
2023-02-15T03:34:53.247Z,52.75
2023-02-15T03:37:33.306Z,57.92
2023-02-15T03:40:25.898Z,49.00
2023-02-15T03:43:11.884Z,58.92
2023-02-15T03:45:55.472Z,55.53
2023-02-15T03:48:37.470Z,57.78
2023-02-15T03:51:34.391Z,50.00
2023-02-15T03:54:59.381Z,49.53
2023-02-15T03:57:47.894Z,45.95
2023-02-15T04:00:33.916Z,46.92
2023-02-15T04:03:21.285Z,49.75
2023-02-15T04:05:48.233Z,56.50
2023-02-15T04:08:15.202Z,50.80
2023-02-15T04:10:54.354Z,64.25
2023-02-15T04:13:30.583Z,50.72
2023-02-15T04:16:07.940Z,49.35
2023-02-15T04:19:02.226Z,55.35
2023-02-15T04:21:50.410Z,58.03
2023-02-15T04:24:36.347Z,60.95
2023-02-15T04:27:05.327Z,59.97
2023-02-15T04:29:32.945Z,60.58
2023-02-15T04:32:03.000Z,63.72
2023-02-15T04:34:30.348Z,56.88
2023-02-15T04:36:57.497Z,50.28
2023-02-15T04:39:25.083Z,50.95
2023-02-15T04:41:52.158Z,55.42
2023-02-15T04:44:19.516Z,51.55
2023-02-15T04:46:46.671Z,51.90
2023-02-15T04:51:40.459Z,63.50
2023-02-15T04:54:08.096Z,63.55
2023-02-15T04:56:35.904Z,60.88
2023-02-15T04:59:02.691Z,56.53
2023-02-15T05:01:36.011Z,54.40
2023-02-15T05:04:10.847Z,49.63
2023-02-15T05:06:42.675Z,70.85
2023-02-15T05:09:10.148Z,56.85
2023-02-15T05:11:37.419Z,57.13
2023-02-15T05:14:08.861Z,63.83
2023-02-15T05:16:39.927Z,60.60
2023-02-15T05:19:07.751Z,43.88
2023-02-15T05:21:37.539Z,58.67
2023-02-15T05:24:32.257Z,51.88
2023-02-15T05:27:18.373Z,47.22
2023-02-15T05:29:47.253Z,49.92
2023-02-15T05:32:20.248Z,66.00
2023-02-15T05:34:47.918Z,50.35
2023-02-15T05:37:15.501Z,65.97
2023-02-15T05:39:42.482Z,52.30
2023-02-15T05:42:10.020Z,83.85
2023-02-15T05:44:37.699Z,54.35
2023-02-15T05:47:05.709Z,70.72
2023-02-15T05:49:33.227Z,44.22
2023-02-15T05:52:00.027Z,53.35
2023-02-15T05:54:26.980Z,43.08
2023-02-15T05:56:53.908Z,52.35
2023-02-15T05:59:20.729Z,37.60
2023-02-15T06:01:47.703Z,60.00
2023-02-15T06:04:14.551Z,38.83
2023-02-15T06:06:41.471Z,33.78
2023-02-15T06:09:08.370Z,36.33
2023-02-15T06:11:35.311Z,50.35
2023-02-15T06:14:02.494Z,36.83
2023-02-15T06:19:08.574Z,39.30
2023-02-15T06:21:47.998Z,40.97
2023-02-15T06:24:24.368Z,36.00
2023-02-15T06:35:19.985Z,53.22
2023-02-15T06:42:09.676Z,51.80
2023-02-15T06:44:51.250Z,50.53
2023-02-15T06:47:25.083Z,36.22
2023-02-15T06:49:56.968Z,42.88
2023-02-15T06:52:30.940Z,37.13
2023-02-15T06:55:03.352Z,44.85
2023-02-15T06:57:33.425Z,52.08
2023-02-15T07:00:01.059Z,64.57
2023-02-15T07:02:28.649Z,44.60
2023-02-15T07:05:08.108Z,42.97
2023-02-15T07:07:40.943Z,40.67
2023-02-15T07:10:09.346Z,49.75
2023-02-15T07:15:18.494Z,41.80
2023-02-15T07:17:45.585Z,42.85
2023-02-15T07:22:43.825Z,42.80
2023-02-15T07:25:12.341Z,41.45
2023-02-15T07:27:40.112Z,47.58
2023-02-15T07:30:11.352Z,41.47
2023-02-15T07:32:58.571Z,37.67
2023-02-15T07:35:25.678Z,44.58
2023-02-15T07:37:54.090Z,44.17
2023-02-15T07:40:23.360Z,39.38
2023-02-15T07:42:54.102Z,39.92
2023-02-15T07:45:22.361Z,43.65
2023-02-15T07:47:49.340Z,40.20
2023-02-15T07:52:44.205Z,23.88
2023-02-15T07:55:13.662Z,28.23
2023-02-15T07:57:48.585Z,29.70
2023-02-15T08:00:18.639Z,33.00
2023-02-15T08:03:10.020Z,27.77
2023-02-15T08:05:37.330Z,33.45
2023-02-15T08:08:04.441Z,33.28
2023-02-15T08:10:50.790Z,27.27
2023-02-15T08:13:17.867Z,32.10
2023-02-15T08:15:52.511Z,28.40
2023-02-15T08:18:19.403Z,30.90
2023-02-15T08:20:55.169Z,28.20
2023-02-15T08:23:22.150Z,37.83
2023-02-15T08:28:15.800Z,28.58
2023-02-15T08:30:43.094Z,30.65
2023-02-15T08:33:13.041Z,32.45
2023-02-15T08:35:39.856Z,36.17
2023-02-15T08:38:06.541Z,34.75
2023-02-15T08:40:33.263Z,33.15
2023-02-15T08:42:59.966Z,26.98
2023-02-15T08:45:26.900Z,32.30
2023-02-15T08:47:54.025Z,31.83
2023-02-15T08:52:47.357Z,29.98
2023-02-15T08:55:14.305Z,31.92
2023-02-15T08:57:45.800Z,33.22
2023-02-15T09:00:13.100Z,36.58
2023-02-15T09:02:40.016Z,28.90
2023-02-15T09:05:07.350Z,28.83
2023-02-15T09:07:34.077Z,31.38
2023-02-15T09:10:00.807Z,29.05
2023-02-15T09:12:27.657Z,30.33
2023-02-15T09:14:54.518Z,26.30
2023-02-15T09:17:21.321Z,30.38
2023-02-15T09:19:48.441Z,35.05
2023-02-15T09:22:15.204Z,32.97
2023-02-15T09:24:42.105Z,33.50
2023-02-15T09:27:08.889Z,36.67
2023-02-15T09:29:35.722Z,38.90
2023-02-15T09:32:02.459Z,46.63
2023-02-15T09:34:29.247Z,38.60
2023-02-15T09:36:56.101Z,32.17
2023-02-15T09:39:25.409Z,40.42
2023-02-15T09:42:04.803Z,36.10
2023-02-15T09:44:31.634Z,47.40
2023-02-15T09:47:38.017Z,39.35
2023-02-15T09:50:23.104Z,47.33
2023-02-15T09:52:55.681Z,42.78
2023-02-15T09:55:34.618Z,46.05
2023-02-15T09:58:46.336Z,47.92
2023-02-15T10:01:21.536Z,41.10
2023-02-15T10:03:57.150Z,42.92
2023-02-15T10:06:34.055Z,39.25
2023-02-15T10:09:10.861Z,43.65
2023-02-15T10:11:51.037Z,45.20
2023-02-15T10:14:20.529Z,48.22
2023-02-15T10:17:03.328Z,47.47
2023-02-15T10:20:11.542Z,41.65
2023-02-15T10:23:12.046Z,48.45
2023-02-15T10:25:52.545Z,39.92
2023-02-15T10:28:24.210Z,41.10
2023-02-15T10:30:54.848Z,41.78
2023-02-15T10:33:41.678Z,46.22
2023-02-15T10:36:38.038Z,44.78
2023-02-15T10:39:29.249Z,53.33
2023-02-15T10:42:23.963Z,49.70
2023-02-15T10:44:59.985Z,45.28
2023-02-15T10:47:40.272Z,49.80
2023-02-15T10:50:26.186Z,50.65
2023-02-15T10:53:18.290Z,50.58
2023-02-15T10:56:08.254Z,45.00
2023-02-15T10:58:56.890Z,47.70
2023-02-15T11:01:42.096Z,45.05
2023-02-15T11:04:35.392Z,46.50
2023-02-15T11:07:09.103Z,54.40
2023-02-15T11:09:51.036Z,57.95
2023-02-15T11:12:25.618Z,60.10
2023-02-15T11:15:04.747Z,54.78
2023-02-15T11:17:39.949Z,59.75
2023-02-15T11:20:22.396Z,51.42
2023-02-15T11:22:52.037Z,56.53
2023-02-15T11:25:31.773Z,62.45
2023-02-15T11:28:00.638Z,65.00
2023-02-15T11:30:39.484Z,58.05
2023-02-15T11:33:07.712Z,63.33
2023-02-15T11:35:50.192Z,75.47
2023-02-15T11:38:30.836Z,59.88
2023-02-15T11:41:09.694Z,64.53
2023-02-15T11:43:54.930Z,60.60
2023-02-15T11:46:22.928Z,58.80
2023-02-15T11:48:49.969Z,61.05
2023-02-15T11:51:23.648Z,66.82
2023-02-15T11:53:52.038Z,58.78
2023-02-15T11:56:27.184Z,66.55
2023-02-15T11:59:01.553Z,59.55
2023-02-15T12:01:38.834Z,70.63
2023-02-15T12:04:14.101Z,43.97
2023-02-15T12:06:50.451Z,64.50
2023-02-15T12:09:23.779Z,52.15
2023-02-15T12:11:50.685Z,50.50
2023-02-15T12:14:17.480Z,55.78
2023-02-15T12:16:56.831Z,55.15
2023-02-15T12:19:41.423Z,62.22
2023-02-15T12:22:30.274Z,53.42
2023-02-15T12:25:01.220Z,61.22
2023-02-15T12:27:33.134Z,55.20
2023-02-15T12:30:05.093Z,52.90
2023-02-15T12:32:47.371Z,53.38
2023-02-15T12:35:17.574Z,53.20
2023-02-15T12:37:58.910Z,57.97
2023-02-15T12:40:31.323Z,55.80
2023-02-15T12:42:59.190Z,70.55
2023-02-15T12:45:30.195Z,70.90
2023-02-15T12:48:19.492Z,58.92
2023-02-15T12:50:55.009Z,64.28
2023-02-15T12:53:35.458Z,68.45
2023-02-15T12:56:07.669Z,74.65
2023-02-15T12:58:39.233Z,72.57
2023-02-15T13:01:22.966Z,69.30
2023-02-15T13:04:05.727Z,70.30
2023-02-15T13:06:35.731Z,60.33
2023-02-15T13:09:33.636Z,73.85
2023-02-15T13:12:24.292Z,72.30
2023-02-15T13:14:53.171Z,73.40
2023-02-15T13:17:30.133Z,76.28
2023-02-15T13:20:01.616Z,78.97
2023-02-15T13:22:47.655Z,76.80
2023-02-15T13:25:22.716Z,76.80
2023-02-15T13:28:03.665Z,83.18
2023-02-15T13:30:36.090Z,72.45
2023-02-15T13:33:11.669Z,70.28
2023-02-15T13:35:48.411Z,68.05
2023-02-15T13:38:17.929Z,71.93
2023-02-15T13:40:59.505Z,67.72
2023-02-15T13:43:36.903Z,69.60
2023-02-15T13:46:09.972Z,70.13
2023-02-15T13:48:50.359Z,72.05
2023-02-15T13:51:44.380Z,66.50
2023-02-15T13:54:37.533Z,73.78
2023-02-15T13:57:17.573Z,63.20
2023-02-15T13:59:57.312Z,72.78
2023-02-15T14:02:53.468Z,62.75
2023-02-15T14:05:32.575Z,62.30
2023-02-15T14:08:09.807Z,65.03
2023-02-15T14:10:51.136Z,78.53
2023-02-15T14:13:39.673Z,71.63
2023-02-15T14:16:35.900Z,68.28
2023-02-15T14:19:32.347Z,69.43
2023-02-15T14:22:12.031Z,68.63
2023-02-15T14:25:05.447Z,61.50
2023-02-15T14:27:55.753Z,70.32
2023-02-15T14:30:34.436Z,67.43
2023-02-15T14:33:09.873Z,65.55
2023-02-15T14:35:38.148Z,73.90
2023-02-15T14:38:07.603Z,64.55
2023-02-15T14:41:02.622Z,60.05
2023-02-15T14:43:48.495Z,63.50
2023-02-15T14:46:37.343Z,65.57
2023-02-15T14:49:31.975Z,64.00
2023-02-15T14:52:05.859Z,63.67
2023-02-15T14:54:35.155Z,64.55
2023-02-15T14:57:02.065Z,64.57
2023-02-15T15:02:04.800Z,70.60
2023-02-15T15:04:42.843Z,59.85
2023-02-15T15:07:19.796Z,71.20
2023-02-15T15:09:58.832Z,61.35
2023-02-15T15:12:37.674Z,64.57
2023-02-15T15:15:04.969Z,73.05
2023-02-15T15:17:39.138Z,59.60
2023-02-15T15:20:08.366Z,62.45
2023-02-15T15:22:36.481Z,66.45
2023-02-15T15:28:48.445Z,65.15
2023-02-15T15:31:21.120Z,58.88
2023-02-15T15:34:12.748Z,69.47
2023-02-15T15:37:14.912Z,67.20
2023-02-15T15:39:44.748Z,69.43
2023-02-15T15:42:32.612Z,73.15
2023-02-15T15:45:34.602Z,78.47
2023-02-15T15:48:51.451Z,77.00
2023-02-15T15:51:27.470Z,73.45
2023-02-15T15:53:55.195Z,74.80
2023-02-15T15:56:32.862Z,73.43
2023-02-15T15:59:08.431Z,80.18
2023-02-15T16:01:44.541Z,71.25
2023-02-15T16:04:33.462Z,75.75
2023-02-15T16:07:15.266Z,80.45
2023-02-15T16:09:42.080Z,78.13
2023-02-15T16:12:18.493Z,80.18
2023-02-15T16:14:48.273Z,75.95
2023-02-15T16:17:25.041Z,76.03
2023-02-15T16:19:53.340Z,73.65
2023-02-15T16:22:25.913Z,76.45
2023-02-15T16:25:02.429Z,77.53
2023-02-15T16:27:35.363Z,74.57
2023-02-15T16:30:39.474Z,71.82
2023-02-15T16:33:09.534Z,65.18
2023-02-15T16:35:39.775Z,77.55
2023-02-15T16:38:10.163Z,71.97
2023-02-15T16:40:41.076Z,76.72
2023-02-15T16:43:22.421Z,72.03
2023-02-15T16:45:49.910Z,67.40
2023-02-15T16:48:22.756Z,71.18
2023-02-15T16:50:53.798Z,72.97
2023-02-15T16:53:29.771Z,75.07
2023-02-15T16:56:02.747Z,71.32
2023-02-15T16:58:38.552Z,69.57
2023-02-15T17:01:08.908Z,73.57
2023-02-15T17:03:36.457Z,72.93
2023-02-15T17:06:04.737Z,69.03
2023-02-15T17:08:34.384Z,68.45
2023-02-15T17:11:04.811Z,75.88
2023-02-15T17:13:32.126Z,65.50
2023-02-15T17:18:44.620Z,69.70
2023-02-15T17:21:20.777Z,77.50
2023-02-15T17:23:52.525Z,73.55
2023-02-15T17:26:23.160Z,69.43
2023-02-15T17:29:10.822Z,76.60
2023-02-15T17:31:38.526Z,70.72
2023-02-15T17:34:05.710Z,70.40
2023-02-15T17:36:32.834Z,66.25
2023-02-15T17:43:56.202Z,70.40
2023-02-15T17:46:26.170Z,75.75
2023-02-15T17:48:56.201Z,65.95
2023-02-15T17:51:23.692Z,70.60
2023-02-15T17:54:11.164Z,79.72
2023-02-15T17:56:39.523Z,68.17
2023-02-15T17:59:11.540Z,70.70
2023-02-15T18:02:04.241Z,68.13
2023-02-15T18:04:52.449Z,75.53
2023-02-15T18:07:38.378Z,72.63
2023-02-15T18:10:44.292Z,68.63
2023-02-15T18:13:11.101Z,78.78
2023-02-15T18:15:37.883Z,80.40
2023-02-15T18:18:04.816Z,79.18
2023-02-15T18:20:37.196Z,71.35
2023-02-15T18:23:04.276Z,77.95
2023-02-15T18:25:31.251Z,71.95
2023-02-15T18:27:58.031Z,69.60
2023-02-15T18:30:27.901Z,82.30
2023-02-15T18:32:57.142Z,79.53
2023-02-15T18:35:28.421Z,74.32
2023-02-15T18:37:55.398Z,69.80
2023-02-15T18:40:27.475Z,75.75
2023-02-15T18:42:56.888Z,74.93
2023-02-15T18:45:28.557Z,73.85
2023-02-15T18:47:55.669Z,70.85
2023-02-15T18:50:32.839Z,77.88
2023-02-15T18:52:59.822Z,73.63
2023-02-15T18:55:28.326Z,74.43
2023-02-15T18:57:57.073Z,74.35
2023-02-15T19:00:34.911Z,78.22
2023-02-15T19:03:02.647Z,76.47
2023-02-15T19:05:31.840Z,77.22
2023-02-15T19:08:00.962Z,79.25
2023-02-15T19:10:31.216Z,78.60
2023-02-15T19:12:58.349Z,89.68
2023-02-15T19:17:54.056Z,92.15
2023-02-15T19:20:38.730Z,86.88
2023-02-15T19:23:09.280Z,78.93
2023-02-15T19:25:39.057Z,86.10
2023-02-15T19:28:16.208Z,77.95
2023-02-15T19:30:43.509Z,82.05
2023-02-15T19:33:20.714Z,77.22
2023-02-15T19:35:52.329Z,85.05
2023-02-15T19:38:23.747Z,85.53
2023-02-15T19:40:50.543Z,81.45
2023-02-15T19:43:21.358Z,78.03
2023-02-15T19:45:48.907Z,100.25
2023-02-15T19:48:15.863Z,92.00
2023-02-15T19:50:43.621Z,82.05
2023-02-15T19:53:23.237Z,82.72
2023-02-15T19:55:51.243Z,83.55
2023-02-15T19:58:19.247Z,77.65
2023-02-15T20:00:48.362Z,81.40
2023-02-15T20:03:16.611Z,80.35
2023-02-15T20:05:44.474Z,79.40
2023-02-15T20:08:20.812Z,81.50
2023-02-15T20:10:47.794Z,85.50
2023-02-15T20:13:16.911Z,76.88
2023-02-15T20:15:44.756Z,69.40
2023-02-15T20:18:12.472Z,70.95
2023-02-15T20:20:51.858Z,78.25
2023-02-15T20:23:37.274Z,72.25
2023-02-15T20:26:18.753Z,82.90
2023-02-15T20:28:46.476Z,77.35
2023-02-15T20:31:16.466Z,71.55
2023-02-15T20:33:43.341Z,74.55
2023-02-15T20:36:15.896Z,70.00
2023-02-15T20:38:44.187Z,77.47
2023-02-15T20:41:40.038Z,80.05
2023-02-15T20:44:29.368Z,68.65
2023-02-15T20:46:58.609Z,76.90
2023-02-15T20:49:27.344Z,76.00
2023-02-15T20:51:55.918Z,80.10
2023-02-15T20:54:34.723Z,75.78
2023-02-15T20:57:02.408Z,78.43
2023-02-15T20:59:32.025Z,76.57
2023-02-15T21:02:02.253Z,76.20
2023-02-15T21:04:34.273Z,79.45
2023-02-15T21:07:01.302Z,78.10
2023-02-15T21:09:28.639Z,79.05
2023-02-15T21:11:58.414Z,72.50
2023-02-15T21:14:28.343Z,78.88
2023-02-15T21:16:55.220Z,75.82
2023-02-15T21:19:23.752Z,85.93
2023-02-15T21:21:53.172Z,78.28
2023-02-15T21:24:24.355Z,92.07
2023-02-15T21:26:51.962Z,87.53
2023-02-15T21:29:21.123Z,76.60
2023-02-15T21:31:54.129Z,89.53
2023-02-15T21:34:28.778Z,76.18
2023-02-15T21:36:55.962Z,72.43
2023-02-15T21:39:25.970Z,82.53
2023-02-15T21:42:13.548Z,82.35
2023-02-15T21:44:59.517Z,88.07
2023-02-15T21:47:49.954Z,92.18
2023-02-15T21:50:47.692Z,91.40
2023-02-15T21:53:25.565Z,78.13
2023-02-15T21:55:58.090Z,79.53
2023-02-15T21:58:28.270Z,84.00
2023-02-15T22:00:57.535Z,94.53
2023-02-15T22:03:26.504Z,86.35
2023-02-15T22:05:53.528Z,86.75
2023-02-15T22:08:20.371Z,88.15
2023-02-15T22:10:48.246Z,88.85
2023-02-15T22:13:26.480Z,90.13
2023-02-15T22:15:53.263Z,87.88
2023-02-15T22:18:23.513Z,85.13
2023-02-15T22:20:50.980Z,93.93
2023-02-15T22:23:17.737Z,84.10
2023-02-15T22:26:09.435Z,100.00
2023-02-15T22:28:39.348Z,91.82
2023-02-15T22:31:14.866Z,100.30
2023-02-15T22:33:41.957Z,95.35
2023-02-15T22:36:27.602Z,102.10
2023-02-15T22:38:55.229Z,94.10
2023-02-15T22:41:26.035Z,99.43
2023-02-15T22:43:53.073Z,101.13
2023-02-15T22:48:49.143Z,93.63
2023-02-15T22:51:17.988Z,89.15
2023-02-15T22:53:44.779Z,96.95
2023-02-15T22:56:40.652Z,102.90
2023-02-15T22:59:14.670Z,95.63
2023-02-15T23:01:41.530Z,89.45
2023-02-15T23:04:18.957Z,104.00
2023-02-15T23:06:46.129Z,94.63
2023-02-15T23:11:40.210Z,85.22
2023-02-15T23:16:42.919Z,104.40
2023-02-15T23:19:12.865Z,103.38
2023-02-15T23:21:39.659Z,115.97
2023-02-15T23:24:20.450Z,93.45
2023-02-15T23:26:48.051Z,106.05
2023-02-15T23:29:17.849Z,86.38
2023-02-15T23:31:48.091Z,89.53
2023-02-15T23:34:22.232Z,94.25
2023-02-15T23:36:49.020Z,85.22
2023-02-15T23:39:37.656Z,93.57
2023-02-15T23:42:10.411Z,88.00
2023-02-15T23:44:38.092Z,90.32
2023-02-15T23:47:05.865Z,81.97
2023-02-15T23:49:32.732Z,92.65
2023-02-15T23:51:59.872Z,93.60
2023-02-15T23:56:57.327Z,91.60
2023-02-15T23:59:26.014Z,88.07
